Time;durP1;ratioP1;P1;durP2;ratioP2;P2;SDS_P1;SDS_P2;PMS_P1;PMS_P2;Temp;Humidity;BMP_temperature;BMP_pressure;BME280_temperature;BME280_humidity;BME280_pressure;Samples;Min_cycle;Max_cycle;Signal;HPM_P1;HPM_P2
2021/03/23 00:01:51;;;;;;;1.80;1.10;;;;;;;-0.49;63.08;98809.88;1748446;82;21472;-62
2021/03/23 00:04:19;;;;;;;2.02;0.93;;;;;;;-0.49;62.89;98803.49;1748338;82;21515;-62
2021/03/23 00:06:47;;;;;;;3.05;0.95;;;;;;;-0.51;62.82;98800.95;1748403;82;21177;-61
2021/03/23 00:09:16;;;;;;;2.22;1.07;;;;;;;-0.54;62.55;98808.62;1748421;82;21075;-61
2021/03/23 00:11:46;;;;;;;1.47;0.90;;;;;;;-0.56;62.47;98808.22;1748431;80;21131;-61
2021/03/23 00:14:14;;;;;;;2.90;1.17;;;;;;;-0.57;62.46;98809.08;1748411;82;21542;-61
2021/03/23 00:16:44;;;;;;;4.92;1.50;;;;;;;-0.59;62.27;98806.96;1748370;82;21168;-62
2021/03/23 00:19:14;;;;;;;3.12;0.95;;;;;;;-0.64;62.05;98813.41;1748396;82;21059;-61
2021/03/23 00:21:44;;;;;;;2.50;1.22;;;;;;;-0.68;61.94;98810.45;1721664;82;21180;-62
2021/03/23 00:24:12;;;;;;;2.02;0.90;;;;;;;-0.73;61.71;98809.20;1748389;82;21141;-61
2021/03/23 00:26:41;;;;;;;1.98;0.80;;;;;;;-0.76;61.14;98818.15;1749494;80;21208;-61
2021/03/23 00:29:11;;;;;;;3.47;0.88;;;;;;;-0.80;60.86;98820.30;1751820;82;21077;-61
2021/03/23 00:31:39;;;;;;;1.25;0.55;;;;;;;-0.84;60.06;98821.20;1751835;80;21078;-61
2021/03/23 00:34:08;;;;;;;5.87;0.98;;;;;;;-0.88;60.22;98814.41;1751847;82;21500;-61
2021/03/23 00:36:38;;;;;;;1.92;0.60;;;;;;;-0.92;60.04;98811.87;1751887;80;21129;-61
2021/03/23 00:39:08;;;;;;;4.80;1.10;;;;;;;-0.97;60.11;98808.07;1751877;80;21202;-61
2021/03/23 00:41:38;;;;;;;1.70;0.70;;;;;;;-1.01;60.34;98813.23;1728791;81;21137;-61
2021/03/23 00:44:09;;;;;;;2.45;1.02;;;;;;;-1.05;59.88;98813.66;1751783;82;21134;-62
2021/03/23 00:46:37;;;;;;;2.20;0.80;;;;;;;-1.10;60.09;98806.45;1729405;82;21511;-61
2021/03/23 00:49:05;;;;;;;2.52;0.90;;;;;;;-1.14;60.07;98812.00;1751885;82;21118;-61
2021/03/23 00:51:34;;;;;;;3.20;0.90;;;;;;;-1.18;60.07;98810.73;1751831;82;21570;-61
2021/03/23 00:54:02;;;;;;;1.42;0.88;;;;;;;-1.23;60.17;98809.94;1751829;82;21086;-61
2021/03/23 00:56:30;;;;;;;1.30;0.60;;;;;;;-1.26;60.47;98815.05;1751847;82;21079;-62
2021/03/23 00:58:58;;;;;;;1.25;0.90;;;;;;;-1.28;60.83;98807.83;1751823;80;21158;-61
2021/03/23 01:01:26;;;;;;;2.08;1.05;;;;;;;-1.30;61.09;98811.66;1751858;82;21126;-62
2021/03/23 01:03:57;;;;;;;6.37;1.57;;;;;;;-1.32;61.29;98811.24;1751757;82;21360;-61
2021/03/23 01:06:24;;;;;;;3.30;1.85;;;;;;;-1.37;61.30;98810.41;1751776;82;21158;-62
2021/03/23 01:08:52;;;;;;;5.78;1.70;;;;;;;-1.42;61.39;98804.92;1751839;82;21174;-62
2021/03/23 01:11:20;;;;;;;3.90;1.90;;;;;;;-1.45;61.78;98811.30;1751909;82;21062;-62
2021/03/23 01:13:49;;;;;;;1.98;1.40;;;;;;;-1.47;62.18;98818.11;1751883;81;21070;-61
2021/03/23 01:16:19;;;;;;;2.22;1.02;;;;;;;-1.49;62.55;98815.99;1751858;82;22207;-61
2021/03/23 01:18:47;;;;;;;2.33;1.32;;;;;;;-1.52;62.91;98814.72;1751826;81;21066;-61
2021/03/23 01:21:15;;;;;;;3.30;1.10;;;;;;;-1.54;63.35;98819.41;1751831;82;21130;-61
2021/03/23 01:23:42;;;;;;;3.35;1.20;;;;;;;-1.56;63.52;98816.86;1751872;82;21593;-61
2021/03/23 01:26:11;;;;;;;3.12;1.20;;;;;;;-1.57;63.64;98814.31;1751767;82;21554;-61
2021/03/23 01:28:39;;;;;;;1.45;0.68;;;;;;;-1.59;63.68;98818.14;1751794;81;21203;-62
2021/03/23 01:31:08;;;;;;;2.50;1.20;;;;;;;-1.63;63.64;98811.37;1751771;82;21102;-61
2021/03/23 01:33:36;;;;;;;3.67;1.20;;;;;;;-1.65;63.75;98811.80;1751819;82;21110;-61
2021/03/23 01:36:06;;;;;;;1.62;0.98;;;;;;;-1.69;63.54;98812.66;1728746;82;21129;-63
2021/03/23 01:38:33;;;;;;;1.72;1.10;;;;;;;-1.72;63.45;98811.39;1751859;80;21118;-61
2021/03/23 01:41:01;;;;;;;11.22;2.17;;;;;;;-1.75;63.39;98814.80;1751810;80;21401;-62
2021/03/23 01:43:33;;;;;;;4.75;1.00;;;;;;;-1.79;63.50;98808.42;1751843;82;21490;-61
2021/03/23 01:46:02;;;;;;;4.00;1.47;;;;;;;-1.84;63.74;98813.98;1751802;82;21065;-61
2021/03/23 01:48:33;;;;;;;3.77;1.55;;;;;;;-1.86;63.95;98816.95;1751917;82;21058;-61
2021/03/23 01:51:07;;;;;;;2.22;0.90;;;;;;;-1.89;64.31;98816.53;1751892;82;21137;-61
2021/03/23 01:53:44;;;;;;;1.90;1.20;;;;;;;-1.91;64.70;98816.96;1751857;82;21202;-61
2021/03/23 01:56:13;;;;;;;2.30;1.15;;;;;;;-1.92;64.95;98809.32;1751829;82;21086;-62
2021/03/23 01:58:43;;;;;;;1.30;0.85;;;;;;;-1.94;65.26;98807.20;1751924;81;21478;-61
2021/03/23 02:01:13;;;;;;;2.72;1.20;;;;;;;-1.96;65.30;98813.99;1728852;81;21097;-61
2021/03/23 02:03:42;;;;;;;3.12;1.20;;;;;;;-2.00;65.53;98817.00;1751984;82;21475;-61
2021/03/23 02:06:38;;;;;;;8.83;2.08;;;;;;;-2.00;65.68;98822.52;1751994;82;21192;-60
2021/03/23 02:09:25;;;;;;;3.65;1.60;;;;;;;-2.05;65.90;98818.70;1751938;82;21125;-60
2021/03/23 02:12:03;;;;;;;7.12;2.10;;;;;;;-2.08;65.91;98816.15;1751974;80;21077;-61
2021/03/23 02:14:35;;;;;;;3.50;1.30;;;;;;;-2.10;66.10;98816.58;1751680;81;21506;-60
2021/03/23 02:17:33;;;;;;;2.55;1.10;;;;;;;-2.11;66.35;98813.60;1752006;81;21590;-61
2021/03/23 02:20:11;;;;;;;1.55;0.90;;;;;;;-2.16;66.60;98805.11;1751962;80;21198;-61
2021/03/23 02:22:48;;;;;;;1.75;0.95;;;;;;;-2.18;66.97;98801.29;1751937;82;21066;-61
2021/03/23 02:25:23;;;;;;;2.67;1.25;;;;;;;-2.20;67.21;98809.35;1752051;81;21157;-61
2021/03/23 02:27:52;;;;;;;3.35;1.10;;;;;;;-2.21;67.46;98807.69;1751849;82;21070;-61
2021/03/23 02:30:35;;;;;;;5.05;1.30;;;;;;;-2.25;67.87;98815.33;1751974;82;21079;-61
2021/03/23 02:33:04;;;;;;;2.08;1.00;;;;;;;-2.28;68.02;98805.13;1752112;81;21203;-61
2021/03/23 02:35:34;;;;;;;2.60;1.00;;;;;;;-2.31;68.33;98808.95;1751918;82;21189;-60
2021/03/23 02:38:02;;;;;;;4.67;1.55;;;;;;;-2.34;68.73;98814.89;1751980;81;21491;-60
2021/03/23 02:40:29;;;;;;;2.55;1.30;;;;;;;-2.36;68.96;98809.38;1751944;82;21058;-60
2021/03/23 02:42:57;;;;;;;2.10;1.00;;;;;;;-2.37;69.19;98807.67;1751922;80;21483;-61
2021/03/23 02:45:27;;;;;;;2.25;1.17;;;;;;;-2.38;69.51;98813.61;1751927;81;21205;-60
2021/03/23 02:47:55;;;;;;;2.05;0.88;;;;;;;-2.40;69.42;98812.37;1751893;82;21169;-61
2021/03/23 02:50:23;;;;;;;1.40;0.78;;;;;;;-2.41;69.45;98811.09;1751941;81;21137;-60
2021/03/23 02:52:51;;;;;;;2.62;1.07;;;;;;;-2.42;69.37;98813.22;1751953;82;21050;-60
2021/03/23 02:55:19;;;;;;;2.22;0.90;;;;;;;-2.45;69.55;98807.70;1751956;82;21082;-61
2021/03/23 02:57:47;;;;;;;31.23;4.08;;;;;;;-2.45;69.58;98808.97;1751974;80;21397;-61
2021/03/23 03:00:17;;;;;;;3.20;1.17;;;;;;;-2.46;69.59;98807.27;1751900;82;21126;-61
2021/03/23 03:02:45;;;;;;;3.30;1.47;;;;;;;-2.48;69.61;98811.09;1751956;82;21122;-60
2021/03/23 03:05:14;;;;;;;2.80;1.42;;;;;;;-2.50;69.61;98814.48;1751875;82;21613;-61
2021/03/23 03:07:45;;;;;;;6.65;1.40;;;;;;;-2.55;69.71;98813.20;1752227;82;21146;-61
2021/03/23 03:10:13;;;;;;;6.65;1.42;;;;;;;-2.56;69.79;98812.77;1751974;82;21414;-61
2021/03/23 03:12:41;;;;;;;6.28;1.60;;;;;;;-2.58;69.96;98812.34;1751945;82;21848;-60
2021/03/23 03:15:11;;;;;;;4.58;1.22;;;;;;;-2.59;69.98;98820.41;1751903;82;21470;-61
2021/03/23 03:17:38;;;;;;;1.62;0.90;;;;;;;-2.60;70.10;98817.89;1751950;81;21082;-60
2021/03/23 03:20:10;;;;;;;5.50;1.30;;;;;;;-2.63;70.15;98816.18;1751948;82;21117;-61
2021/03/23 03:22:37;;;;;;;3.30;1.10;;;;;;;-2.64;70.25;98816.17;1728456;82;21383;-61
2021/03/23 03:25:08;;;;;;;3.85;1.57;;;;;;;-2.65;70.31;98815.33;1751933;82;21566;-61
2021/03/23 03:27:36;;;;;;;6.37;1.52;;;;;;;-2.66;70.38;98817.88;1751868;82;21578;-61
2021/03/23 03:30:08;;;;;;;2.95;1.07;;;;;;;-2.68;70.46;98820.41;1752002;80;21126;-61
2021/03/23 03:32:36;;;;;;;7.37;0.78;;;;;;;-2.69;70.41;98821.26;1751959;82;21118;-61
2021/03/23 03:35:07;;;;;;;1.60;1.05;;;;;;;-2.69;70.36;98822.95;1751901;80;21509;-61
2021/03/23 03:37:35;;;;;;;2.45;1.17;;;;;;;-2.70;70.46;98821.25;1751921;82;21142;-61
2021/03/23 03:40:07;;;;;;;4.03;1.50;;;;;;;-2.71;70.42;98817.01;1751888;82;21180;-61
2021/03/23 03:42:35;;;;;;;3.50;1.32;;;;;;;-2.70;70.42;98817.44;1751854;80;21146;-61
2021/03/23 03:45:07;;;;;;;3.87;1.37;;;;;;;-2.71;70.52;98814.47;1751914;82;21145;-61
2021/03/23 03:47:35;;;;;;;4.58;1.60;;;;;;;-2.70;70.49;98813.62;1751908;80;21368;-61
2021/03/23 03:50:05;;;;;;;3.52;1.95;;;;;;;-2.69;70.58;98808.53;1751817;80;21180;-61
2021/03/23 03:52:33;;;;;;;9.55;2.17;;;;;;;-2.66;70.59;98808.96;1751926;82;21186;-61
2021/03/23 03:55:01;;;;;;;3.08;1.52;;;;;;;-2.63;70.55;98811.09;1751999;82;21071;-61
2021/03/23 03:57:31;;;;;;;2.15;1.15;;;;;;;-2.60;70.62;98807.70;1751945;80;21543;-61
2021/03/23 03:59:58;;;;;;;5.05;1.57;;;;;;;-2.57;70.69;98807.67;1751877;82;21370;-61
2021/03/23 04:02:26;;;;;;;2.45;1.40;;;;;;;-2.52;70.79;98810.66;1751866;81;21158;-61
2021/03/23 04:04:54;;;;;;;4.70;1.25;;;;;;;-2.44;70.67;98802.61;1751843;82;21161;-61
2021/03/23 04:07:22;;;;;;;3.08;1.42;;;;;;;-2.35;70.57;98809.38;1751978;82;21057;-61
2021/03/23 04:09:50;;;;;;;8.58;1.60;;;;;;;-2.29;70.57;98805.56;1751889;82;21079;-61
2021/03/23 04:12:19;;;;;;;11.60;2.72;;;;;;;-2.13;70.47;98808.50;1751903;82;21355;-61
2021/03/23 04:14:47;;;;;;;3.10;1.32;;;;;;;-1.94;70.18;98802.95;1751802;80;21087;-60
2021/03/23 04:17:15;;;;;;;4.53;1.30;;;;;;;-1.68;69.84;98799.06;1751879;82;21130;-61
2021/03/23 04:19:43;;;;;;;39.78;4.40;;;;;;;-1.41;69.15;98800.24;1751865;82;21145;-60
2021/03/23 04:22:11;;;;;;;59.10;5.37;;;;;;;-1.14;68.62;98809.45;1751871;82;21058;-61
2021/03/23 04:24:39;;;;;;;25.90;2.80;;;;;;;-0.89;67.98;98805.05;1728856;82;21341;-61
2021/03/23 04:27:09;;;;;;;12.90;2.70;;;;;;;-0.64;67.45;98805.74;1751717;82;21098;-63
2021/03/23 04:29:37;;;;;;;6.75;1.50;;;;;;;-0.44;66.81;98806.44;1748371;82;21074;-62
2021/03/23 04:32:07;;;;;;;32.95;4.33;;;;;;;-0.31;66.11;98804.62;1748407;82;21154;-61
2021/03/23 04:34:35;;;;;;;6.37;1.80;;;;;;;-0.25;65.57;98809.69;1748441;80;21121;-60
2021/03/23 04:37:06;;;;;;;3.90;1.67;;;;;;;-0.25;65.36;98812.23;1748366;82;21114;-61
2021/03/23 04:39:36;;;;;;;3.33;1.77;;;;;;;-0.25;65.25;98810.96;1748379;82;21594;-61
2021/03/23 04:42:06;;;;;;;7.25;1.57;;;;;;;-0.29;65.15;98810.56;1748326;80;21126;-61
2021/03/23 04:44:34;;;;;;;4.90;1.35;;;;;;;-0.29;65.28;98806.73;1748386;80;21550;-61
2021/03/23 04:47:02;;;;;;;3.27;1.80;;;;;;;-0.24;65.24;98811.37;1748426;80;21077;-61
2021/03/23 04:49:30;;;;;;;4.30;1.75;;;;;;;-0.27;65.10;98814.39;1748423;82;22185;-61
2021/03/23 04:51:59;;;;;;;10.60;2.25;;;;;;;-0.33;65.14;98822.94;1748339;82;21534;-62
2021/03/23 04:54:26;;;;;;;4.92;1.62;;;;;;;-0.41;65.39;98831.97;1748385;82;21106;-61
2021/03/23 04:56:54;;;;;;;3.37;1.70;;;;;;;-0.51;65.85;98826.92;1748381;80;21145;-61
2021/03/23 04:59:22;;;;;;;4.25;1.90;;;;;;;-0.59;66.38;98822.28;1748383;82;21506;-61
2021/03/23 05:01:50;;;;;;;5.28;2.12;;;;;;;-0.62;66.62;98824.89;1748405;82;21401;-63
2021/03/23 05:04:19;;;;;;;8.30;3.00;;;;;;;-0.58;66.82;98832.49;1748334;82;21102;-62
2021/03/23 05:06:47;;;;;;;8.78;3.40;;;;;;;-0.51;66.06;98834.59;1748322;82;21166;-63
2021/03/23 05:09:15;;;;;;;6.08;3.70;;;;;;;-0.46;65.51;98826.04;1748362;82;21141;-60
2021/03/23 05:11:43;;;;;;;4.75;2.65;;;;;;;-0.36;65.16;98830.20;1748420;82;21179;-61
2021/03/23 05:14:11;;;;;;;8.70;3.80;;;;;;;-0.25;64.59;98830.56;1748387;82;21193;-61
2021/03/23 05:16:41;;;;;;;23.12;4.83;;;;;;;-0.18;64.46;98828.34;1721449;82;21107;-61
2021/03/23 05:19:09;;;;;;;11.03;4.30;;;;;;;-0.12;64.21;98835.54;1748340;82;21070;-61
2021/03/23 05:21:37;;;;;;;9.73;3.33;;;;;;;-0.05;64.12;98833.36;1748379;82;21082;-61
2021/03/23 05:24:07;;;;;;;9.30;2.98;;;;;;;-0.02;64.07;98828.65;1748396;82;21118;-61
2021/03/23 05:26:36;;;;;;;11.60;3.08;;;;;;;0.05;64.08;98818.77;1748396;82;21202;-61
2021/03/23 05:29:04;;;;;;;12.20;3.90;;;;;;;0.14;63.98;98829.34;1750261;82;21557;-61
2021/03/23 05:31:33;;;;;;;6.90;2.92;;;;;;;0.27;64.09;98828.34;1751830;82;21063;-62
2021/03/23 05:34:03;;;;;;;14.90;4.35;;;;;;;0.44;64.07;98827.73;1751652;81;21572;-60
2021/03/23 05:36:31;;;;;;;5.75;3.17;;;;;;;0.58;63.83;98832.70;1751840;82;21063;-60
2021/03/23 05:38:59;;;;;;;45.15;5.60;;;;;;;0.65;63.51;98828.76;1751914;82;21286;-61
2021/03/23 05:41:41;;;;;;;14.20;3.47;;;;;;;0.71;63.51;98824.44;1751927;80;21292;-61
2021/03/23 05:44:39;;;;;;;10.00;3.30;;;;;;;0.78;63.27;98832.03;1751832;80;21063;-61
2021/03/23 05:47:14;;;;;;;11.53;3.27;;;;;;;0.81;63.23;98831.97;1751968;82;21118;-61
2021/03/23 05:50:02;;;;;;;5.87;3.25;;;;;;;0.80;63.33;98832.02;1751910;81;21066;-60
2021/03/23 05:52:58;;;;;;;72.35;8.93;;;;;;;0.79;63.37;98839.28;1751972;82;21372;-61
2021/03/23 05:55:44;;;;;;;15.20;5.17;;;;;;;0.75;63.58;98834.63;1751911;82;21158;-61
2021/03/23 05:58:20;;;;;;;6.10;3.52;;;;;;;0.78;63.76;98832.47;1751807;82;21509;-61
2021/03/23 06:00:59;;;;;;;22.13;5.62;;;;;;;0.76;64.01;98828.64;1729307;80;21061;-61
2021/03/23 06:03:32;;;;;;;40.25;12.75;;;;;;;0.77;64.53;98827.78;1751949;81;21054;-62
2021/03/23 06:06:40;;;;;;;26.45;11.63;;;;;;;0.79;65.07;98834.16;1750432;80;21355;-66
2021/03/23 06:09:12;;;;;;;6.58;3.52;;;;;;;0.85;65.67;98836.19;1749654;80;21205;-62
2021/03/23 06:11:52;;;;;;;3.70;2.02;;;;;;;0.83;66.67;98837.07;1749804;82;21195;-62
2021/03/23 06:14:42;;;;;;;3.65;2.52;;;;;;;0.80;67.52;98842.26;1751769;82;21090;-61
2021/03/23 06:17:16;;;;;;;3.70;2.45;;;;;;;0.74;68.42;98841.05;1751915;82;21063;-61
2021/03/23 06:20:11;;;;;;;4.17;1.98;;;;;;;0.66;69.14;98847.09;1751871;82;21367;-61
2021/03/23 06:22:59;;;;;;;4.35;2.40;;;;;;;0.66;69.78;98842.41;1751920;82;21066;-61
2021/03/23 06:26:04;;;;;;;4.65;1.90;;;;;;;0.70;70.21;98841.51;1751892;80;21495;-68
2021/03/23 06:28:58;;;;;;;3.95;1.95;;;;;;;0.74;70.38;98839.77;1751398;82;21142;-61
2021/03/23 06:32:02;;;;;;;4.42;1.65;;;;;;;0.82;70.73;98840.50;1694463;84;21224;-61
2021/03/23 06:34:34;;;;;;;4.78;1.75;;;;;;;0.83;71.14;98837.92;1751747;81;21402;-61
2021/03/23 06:37:21;;;;;;;3.22;1.77;;;;;;;0.88;71.28;98842.99;1728340;82;21062;-61
2021/03/23 06:39:50;;;;;;;3.35;1.60;;;;;;;0.94;71.01;98845.48;1751874;80;21099;-61
2021/03/23 06:42:39;;;;;;;4.20;1.90;;;;;;;1.05;71.21;98850.02;1751873;80;21489;-61
2021/03/23 06:45:22;;;;;;;3.62;2.35;;;;;;;1.10;70.97;98846.12;1751682;80;21251;-61
2021/03/23 06:47:50;;;;;;;3.30;1.82;;;;;;;1.14;71.01;98849.06;1751086;82;21403;-61
2021/03/23 06:50:30;;;;;;;5.28;2.08;;;;;;;1.10;71.10;98846.12;1751800;82;21499;-62
2021/03/23 06:53:14;;;;;;;2.95;1.80;;;;;;;1.06;71.16;98847.02;1751807;80;21054;-60
2021/03/23 06:58:32;;;;;;;4.53;2.05;;;;;;;1.10;71.33;98839.72;1888403;76;22714;-62
2021/03/23 07:01:17;;;;;;;2.85;1.57;;;;;;;1.20;71.45;98842.12;1775130;80;21126;-61
2021/03/23 07:03:55;;;;;;;3.67;1.55;;;;;;;1.35;70.97;98846.20;1849447;77;21486;-63
2021/03/23 07:06:29;;;;;;;4.97;1.62;;;;;;;1.43;70.55;98839.23;1849304;77;21005;-63
2021/03/23 07:09:19;;;;;;;3.17;1.40;;;;;;;1.50;70.67;98848.53;1815659;79;21056;-63
2021/03/23 07:12:04;;;;;;;2.72;1.25;;;;;;;1.54;69.49;98846.77;1816264;79;21139;-62
2021/03/23 07:14:39;;;;;;;5.80;2.98;;;;;;;1.47;69.71;98840.88;1825433;77;21119;-63
2021/03/23 07:17:24;;;;;;;2.83;1.30;;;;;;;1.46;70.32;98840.91;1849682;77;21197;-63
2021/03/23 07:20:00;;;;;;;3.58;1.40;;;;;;;1.47;70.04;98844.73;1849672;77;21142;-63
2021/03/23 07:22:36;;;;;;;1.92;1.05;;;;;;;1.58;69.91;98845.86;1849750;77;20983;-64
2021/03/23 07:25:09;;;;;;;3.50;1.10;;;;;;;1.63;68.89;98844.05;1775073;80;21189;-62
2021/03/23 07:27:37;;;;;;;;;;;;;;;1.65;68.19;98841.87;1848531;77;21119;-62
2021/03/23 07:30:27;;;;;;;2.70;1.20;;;;;;;1.67;67.90;98838.02;1849656;77;21382;-61
2021/03/23 07:33:00;;;;;;;2.58;1.05;;;;;;;1.75;66.85;98835.34;1775034;80;21195;-62
2021/03/23 07:35:33;;;;;;;3.43;1.17;;;;;;;1.87;65.40;98840.25;1849931;77;21104;-61
2021/03/23 07:38:40;;;;;;;2.70;1.65;;;;;;;1.96;64.93;98834.98;1775061;80;21514;-62
2021/03/23 07:41:22;;;;;;;2.27;1.60;;;;;;;2.04;64.34;98843.37;1849807;77;21536;-62
2021/03/23 07:44:19;;;;;;;2.27;1.22;;;;;;;2.14;64.24;98832.09;1816012;79;21110;-62
2021/03/23 07:46:52;;;;;;;2.37;1.20;;;;;;;2.29;63.76;98828.40;1816241;78;21114;-62
2021/03/23 07:49:39;;;;;;;2.22;1.32;;;;;;;2.33;62.61;98827.04;1744305;81;21144;-63
2021/03/23 07:52:45;;;;;;;2.75;1.40;;;;;;;2.28;62.29;98823.70;1816282;79;21106;-61
2021/03/23 07:55:25;;;;;;;2.67;1.35;;;;;;;2.28;62.35;98826.70;1816315;79;21145;-62
2021/03/23 07:58:40;;;;;;;2.90;1.67;;;;;;;2.36;62.54;98827.42;1814798;78;23400;-61
2021/03/23 08:02:05;;;;;;;4.22;1.98;;;;;;;2.47;62.68;98820.35;1732160;82;21153;-64
2021/03/23 08:04:57;;;;;;;3.75;1.50;;;;;;;2.60;62.62;98817.94;1735989;81;21615;-63
2021/03/23 08:07:34;;;;;;;5.42;2.22;;;;;;;2.80;61.71;98816.26;1730666;83;21127;-62
2021/03/23 08:10:17;;;;;;;3.55;1.30;;;;;;;2.89;61.94;98812.66;1730096;81;21192;-63
2021/03/23 08:13:03;;;;;;;3.30;1.32;;;;;;;3.03;60.78;98820.47;1715914;82;22270;-63
2021/03/23 08:16:10;;;;;;;2.47;1.40;;;;;;;3.00;59.07;98825.67;1720323;83;21532;-62
2021/03/23 08:18:51;;;;;;;3.40;1.50;;;;;;;2.78;59.36;98823.61;1720137;83;21235;-62
2021/03/23 08:21:49;;;;;;;3.00;1.65;;;;;;;2.48;60.83;98824.61;1720222;83;21108;-63
2021/03/23 08:25:06;;;;;;;4.22;1.70;;;;;;;2.36;61.71;98816.72;1720334;83;21151;-63
2021/03/23 08:28:10;;;;;;;4.92;1.85;;;;;;;2.28;62.26;98814.73;1718867;82;21398;-63
2021/03/23 08:31:25;;;;;;;2.95;1.50;;;;;;;2.36;61.45;98812.87;1695819;84;21187;-62
2021/03/23 08:34:18;;;;;;;8.60;1.53;;;;;;;2.60;61.07;98806.86;1686148;84;21136;-61
2021/03/23 08:37:31;;;;;;;5.00;2.37;;;;;;;2.67;59.71;98804.12;1701676;83;22037;-62
2021/03/23 08:40:28;;;;;;;2.52;1.20;;;;;;;2.67;58.40;98801.98;1701840;83;21095;-62
2021/03/23 08:42:58;;;;;;;10.72;1.90;;;;;;;2.78;58.21;98809.48;1701496;82;22292;-62
2021/03/23 08:45:41;;;;;;;5.33;1.90;;;;;;;2.73;57.52;98809.58;1701771;83;21176;-62
2021/03/23 08:48:37;;;;;;;9.48;2.10;;;;;;;2.60;57.67;98805.58;1701820;83;21188;-61
2021/03/23 08:51:10;;;;;;;50.98;5.05;;;;;;;2.50;57.81;98801.05;1701930;84;21131;-62
2021/03/23 08:53:43;;;;;;;5.07;1.63;;;;;;;2.52;57.55;98798.45;1701967;84;21131;-62
2021/03/23 08:56:12;;;;;;;10.55;1.85;;;;;;;2.52;51.10;98799.30;1700703;84;21451;-63
2021/03/23 08:58:49;;;;;;;3.27;1.40;;;;;;;2.52;51.10;98799.30;1726972;82;21170;-61
2021/03/23 09:01:39;;;;;;;9.05;1.50;;;;;;;2.42;50.88;98801.62;1666551;84;21143;-61
2021/03/23 09:04:16;;;;;;;2.17;1.17;;;;;;;2.46;51.31;98799.84;1730719;82;21213;-65
2021/03/23 09:07:04;;;;;;;1.65;0.70;;;;;;;2.61;49.10;98802.95;1702436;84;21208;-63
2021/03/23 09:09:40;;;;;;;4.58;0.90;;;;;;;2.82;46.93;98802.95;1729343;82;22125;-62
2021/03/23 09:12:44;;;;;;;3.27;0.93;;;;;;;2.98;44.11;98794.50;1702289;83;21579;-62
2021/03/23 09:15:22;;;;;;;2.20;0.90;;;;;;;2.93;43.49;98792.03;1707444;82;21087;-62
2021/03/23 09:18:16;;;;;;;11.50;1.27;;;;;;;2.77;44.85;98794.52;1679842;84;21030;-62
2021/03/23 09:21:09;;;;;;;11.45;1.87;;;;;;;2.58;45.41;98792.77;1720725;82;21574;-63
2021/03/23 09:23:42;;;;;;;2.83;0.90;;;;;;;2.45;46.23;98796.44;1702459;84;21377;-63
2021/03/23 09:26:38;;;;;;;1.92;0.88;;;;;;;2.57;44.81;98790.23;1731713;82;21080;-64
2021/03/23 09:29:35;;;;;;;3.85;1.22;;;;;;;2.80;43.25;98788.01;1702392;84;21147;-63
2021/03/23 09:32:19;;;;;;;9.25;2.00;;;;;;;3.03;43.85;98784.95;1731505;82;21150;-62
2021/03/23 09:35:14;;;;;;;4.37;1.40;;;;;;;3.18;40.97;98794.91;1702408;83;21578;-64
2021/03/23 09:37:56;;;;;;;9.03;3.15;;;;;;;3.05;41.46;98793.03;1730495;82;21249;-63
2021/03/23 09:40:33;;;;;;;7.05;1.67;;;;;;;2.94;42.56;98801.42;1714828;82;21113;-63
2021/03/23 09:43:23;;;;;;;8.18;1.32;;;;;;;2.91;41.61;98800.20;1729733;82;21169;-62
2021/03/23 09:45:57;;;;;;;4.60;0.90;;;;;;;2.82;42.32;98787.54;1729471;81;21192;-64
2021/03/23 09:48:52;;;;;;;23.83;2.12;;;;;;;2.69;41.25;98794.66;1738851;81;21118;-62
2021/03/23 09:51:41;;;;;;;4.42;1.95;;;;;;;2.62;39.99;98790.95;1748564;82;21371;-63
2021/03/23 09:54:23;;;;;;;3.83;2.85;;;;;;;2.49;40.52;98793.38;1748445;82;21186;-64
2021/03/23 09:56:52;;;;;;;7.10;3.80;;;;;;;2.41;39.74;98797.36;1726740;82;21218;-63
2021/03/23 09:59:24;;;;;;;3.35;2.17;;;;;;;2.53;40.51;98791.16;1748209;82;21655;-65
2021/03/23 10:02:21;;;;;;;8.10;4.70;;;;;;;2.67;40.18;98794.28;1747836;82;21119;-62
2021/03/23 10:04:49;;;;;;;9.73;2.00;;;;;;;2.86;40.29;98788.33;1749045;82;21385;-62
2021/03/23 10:10:36;;;;;;;7.28;1.60;;;;;;;2.96;39.82;98791.13;1796346;77;27878;-62
2021/03/23 10:13:27;;;;;;;8.23;1.45;;;;;;;2.95;36.40;98795.84;1810855;78;21592;-62
2021/03/23 10:15:56;;;;;;;3.50;0.78;;;;;;;2.87;33.77;98785.73;1804716;78;22267;-63
2021/03/23 10:18:31;;;;;;;3.37;2.83;;;;;;;2.73;36.05;98790.31;1793192;78;21202;-61
2021/03/23 10:21:07;;;;;;;10.03;5.85;;;;;;;2.64;37.60;98798.20;1810252;78;21077;-62
2021/03/23 10:23:37;;;;;;;7.72;2.20;;;;;;;2.63;38.26;98794.78;1796088;78;21050;-60
2021/03/23 10:26:06;;;;;;;3.87;0.88;;;;;;;2.63;38.18;98790.08;1779137;79;21086;-63
2021/03/23 10:28:48;;;;;;;9.40;1.15;;;;;;;2.62;36.85;98790.52;1795575;79;21359;-63
2021/03/23 10:31:11;;;;;;;3.92;0.90;;;;;;;2.58;37.81;98791.92;1793337;78;21074;-63
2021/03/23 10:33:40;;;;;;;11.20;1.37;;;;;;;2.58;38.27;98797.06;1795307;79;21690;-63
2021/03/23 10:36:12;;;;;;;1.12;0.60;;;;;;;2.56;38.20;98794.95;1794198;79;21577;-63
2021/03/23 10:38:46;;;;;;;2.92;1.05;;;;;;;2.53;38.00;98796.30;1793840;79;21578;-61
2021/03/23 10:41:24;;;;;;;2.52;1.50;;;;;;;2.53;38.51;98800.99;1795233;78;21384;-62
2021/03/23 10:44:12;;;;;;;2.33;1.07;;;;;;;2.49;39.58;98796.79;1761497;81;21539;-62
2021/03/23 10:46:43;;;;;;;2.27;0.70;;;;;;;2.48;40.58;98798.09;1751727;80;21142;-63
2021/03/23 10:49:27;;;;;;;2.30;0.72;;;;;;;2.47;40.16;98798.53;1784150;80;21167;-63
2021/03/23 10:52:18;;;;;;;1.72;0.85;;;;;;;2.41;40.09;98808.91;1783603;80;21053;-63
2021/03/23 10:54:46;;;;;;;17.05;1.60;;;;;;;2.34;40.11;98800.94;1778414;80;23550;-63
2021/03/23 10:57:32;;;;;;;2.77;0.90;;;;;;;2.31;40.21;98797.99;1783892;80;21071;-63
2021/03/23 11:00:35;;;;;;;6.85;1.15;;;;;;;2.37;39.35;98791.91;1774309;80;21091;-64
2021/03/23 11:06:05;;;;;;;3.20;0.80;;;;;;;2.98;40.06;98783.79;1888501;76;22627;-62
2021/03/23 11:08:34;;;;;;;6.92;0.98;;;;;;;3.11;38.80;98780.50;1772572;80;21080;-63
2021/03/23 11:11:07;;;;;;;6.92;0.82;;;;;;;3.16;39.15;98781.25;1849138;77;21350;-63
2021/03/23 11:13:37;;;;;;;7.28;1.12;;;;;;;3.15;39.22;98796.26;1849493;77;21063;-63
2021/03/23 11:16:11;;;;;;;3.12;0.88;;;;;;;3.08;39.87;98790.40;1849584;77;20924;-61
2021/03/23 11:18:37;;;;;;;5.40;0.78;;;;;;;3.06;38.30;98785.73;1849743;77;20921;-63
2021/03/23 11:21:08;;;;;;;1.87;1.07;;;;;;;3.09;38.12;98786.95;1848873;77;21191;-63
2021/03/23 11:23:43;;;;;;;54.55;4.28;;;;;;;3.11;37.43;98777.48;1792844;77;21212;-65
2021/03/23 11:26:15;;;;;;;1.72;0.72;;;;;;;3.15;37.79;98776.98;1849302;77;21071;-62
2021/03/23 11:28:47;;;;;;;4.45;1.22;;;;;;;3.26;36.84;98780.14;1814932;77;21115;-62
2021/03/23 11:31:16;;;;;;;2.15;1.20;;;;;;;3.38;35.11;98782.45;1849561;77;21056;-67
2021/03/23 11:33:46;;;;;;;1.37;0.95;;;;;;;3.38;34.98;98776.02;1848014;77;21174;-63
2021/03/23 11:36:16;;;;;;;4.28;1.22;;;;;;;3.31;35.21;98777.03;1814850;77;21203;-62
2021/03/23 11:38:44;;;;;;;1.40;0.93;;;;;;;3.25;34.57;98778.45;1849245;77;21141;-62
2021/03/23 11:41:38;;;;;;;21.15;2.35;;;;;;;3.27;35.42;98778.42;1848891;77;21603;-64
2021/03/23 11:44:14;;;;;;;5.87;1.32;;;;;;;3.27;34.89;98771.55;1815845;79;21099;-62
2021/03/23 11:47:10;;;;;;;2.33;0.70;;;;;;;3.30;35.25;98766.78;1784614;79;21586;-62
2021/03/23 11:50:07;;;;;;;6.22;0.80;;;;;;;3.40;35.17;98768.24;1774135;80;21290;-62
2021/03/23 11:52:37;;;;;;;6.10;1.47;;;;;;;3.42;36.04;98767.33;1774842;80;21106;-62
2021/03/23 11:55:12;;;;;;;1.37;0.90;;;;;;;3.41;36.28;98769.50;1774961;80;21211;-62
2021/03/23 11:57:41;;;;;;;9.83;1.20;;;;;;;3.36;36.08;98767.50;1775192;80;21186;-62
2021/03/23 12:00:12;;;;;;;3.10;1.37;;;;;;;3.31;36.43;98768.48;1774694;80;21601;-63
2021/03/23 12:02:42;;;;;;;8.35;1.35;;;;;;;3.27;36.97;98763.84;1775293;80;21781;-66
2021/03/23 12:05:19;;;;;;;5.12;1.85;;;;;;;3.30;37.23;98761.64;1774683;80;21204;-64
2021/03/23 12:08:34;;;;;;;2.52;1.00;;;;;;;3.34;36.82;98765.40;1746847;80;21774;-63
2021/03/23 12:11:33;;;;;;;8.38;1.22;;;;;;;3.30;36.40;98768.07;1713261;83;21070;-63
2021/03/23 12:14:38;;;;;;;6.40;1.30;;;;;;;3.22;37.06;98764.38;1744410;82;21087;-64
2021/03/23 12:17:12;;;;;;;7.37;1.80;;;;;;;3.14;36.38;98770.59;1743906;82;21380;-62
2021/03/23 12:19:53;;;;;;;18.35;2.05;;;;;;;3.03;37.00;98779.38;1743720;82;21137;-62
2021/03/23 12:22:29;;;;;;;5.15;1.10;;;;;;;3.03;37.12;98771.66;1743397;81;21069;-66
2021/03/23 12:24:58;;;;;;;3.25;1.02;;;;;;;2.98;36.54;98768.38;1712936;83;21224;-61
2021/03/23 12:27:29;;;;;;;17.40;3.12;;;;;;;2.89;36.60;98763.87;1743900;82;21636;-64
2021/03/23 12:30:00;;;;;;;3.60;0.70;;;;;;;2.82;38.36;98771.28;1712939;83;21384;-62